Allgood, Alabama
Current Conditions -  °F | °C
As of 7:15 PM on Sunday 23 Nov 2014 (Local Time) from KGAD Reporting Station
Overcast Overcast  
Wind Chill: 17°   Ceiling: 2700
Heat Index: 17°   Visibility: 10mi
Dew Point: 13°   Wind: 8mph
Humidity: 77%   Direction: 210°SSW
Pressure: 29.63"   Gusts: NA
Location:  33.91°N, 86.51°W
Report Text: KGAD 240115Z 21007KT 10SM SCT019 BKN027 OVC033 17/13 A2963 RMK AO1
Loading
Personal Weather Stations






























Interactive Weather Map New forecast layout! Learn more

10-Day Weather Forecast

Advertisements
Track Severe Weather on mobile